createdAt,value
2022-11-14T00:00:49.062Z,108.30
2022-11-14T00:01:49.047Z,441.50
2022-11-14T00:02:49.115Z,279.10
2022-11-14T00:03:49.050Z,200.10
2022-11-14T00:04:49.077Z,189.00
2022-11-14T00:05:49.032Z,211.30
2022-11-14T00:06:49.033Z,177.00
2022-11-14T00:07:48.980Z,191.70
2022-11-14T00:08:48.989Z,124.10
2022-11-14T00:09:48.991Z,178.20
2022-11-14T00:10:48.970Z,121.40
2022-11-14T00:11:48.956Z,185.20
2022-11-14T00:12:48.925Z,182.40
2022-11-14T00:13:48.928Z,214.50
2022-11-14T00:14:48.946Z,457.80
2022-11-14T00:15:48.902Z,206.10
2022-11-14T00:16:48.889Z,136.30
2022-11-14T00:17:48.890Z,197.20
2022-11-14T00:18:48.874Z,388.50
2022-11-14T00:19:48.883Z,333.40
2022-11-14T00:20:48.844Z,358.80
2022-11-14T00:21:48.848Z,349.10
2022-11-14T00:22:48.840Z,227.60
2022-11-14T00:23:48.817Z,213.80
2022-11-14T00:24:48.831Z,185.80
2022-11-14T00:25:48.814Z,244.80
2022-11-14T00:26:48.792Z,311.50
2022-11-14T00:27:48.769Z,140.50
2022-11-14T00:28:48.775Z,236.00
2022-11-14T00:29:48.789Z,207.60
2022-11-14T00:30:48.753Z,220.90
2022-11-14T00:31:48.732Z,133.60
2022-11-14T00:32:48.721Z,242.70
2022-11-14T00:33:48.701Z,172.90
2022-11-14T00:34:48.738Z,229.70
2022-11-14T00:35:48.669Z,188.40
2022-11-14T00:36:48.673Z,207.60
2022-11-14T00:37:48.636Z,236.50
2022-11-14T00:38:48.633Z,191.20
2022-11-14T00:39:48.642Z,217.50
2022-11-14T00:40:48.617Z,317.80
2022-11-14T00:41:48.606Z,264.60
2022-11-14T00:42:48.617Z,240.30
2022-11-14T00:43:48.597Z,219.20
2022-11-14T00:44:48.603Z,189.90
2022-11-14T00:45:48.569Z,226.10
2022-11-14T00:46:48.569Z,219.40
2022-11-14T00:47:48.552Z,156.60
2022-11-14T00:48:48.529Z,219.60
2022-11-14T00:49:48.526Z,210.10
2022-11-14T00:50:48.553Z,165.10
2022-11-14T00:51:48.505Z,271.90
2022-11-14T00:52:48.492Z,179.80
2022-11-14T00:53:48.487Z,207.20
2022-11-14T00:54:48.467Z,217.40
2022-11-14T00:55:48.501Z,202.90
2022-11-14T00:56:48.446Z,229.30
2022-11-14T00:57:48.429Z,248.70
2022-11-14T00:58:48.410Z,317.60
2022-11-14T00:59:48.404Z,268.40
2022-11-14T01:00:48.453Z,210.10
2022-11-14T01:01:48.381Z,308.10
2022-11-14T01:02:48.369Z,510.60
2022-11-14T01:03:48.371Z,446.70
2022-11-14T01:04:48.351Z,429.50
2022-11-14T01:05:48.381Z,376.00
2022-11-14T01:06:48.328Z,377.00
2022-11-14T01:07:48.315Z,390.10
2022-11-14T01:08:48.350Z,431.30
2022-11-14T01:09:48.314Z,378.90
2022-11-14T01:10:48.325Z,402.20
2022-11-14T01:11:48.300Z,369.60
2022-11-14T01:12:48.292Z,404.40
2022-11-14T01:13:48.248Z,362.20
2022-11-14T01:14:48.275Z,346.20
2022-11-14T01:15:48.229Z,308.00
2022-11-14T01:16:48.203Z,300.10
2022-11-14T01:17:48.193Z,316.00
2022-11-14T01:18:48.184Z,327.20
2022-11-14T01:19:48.204Z,332.70
2022-11-14T01:20:48.176Z,342.50
2022-11-14T01:21:48.167Z,359.80
2022-11-14T01:22:48.146Z,371.40
2022-11-14T01:23:48.146Z,366.90
2022-11-14T01:24:48.196Z,340.30
2022-11-14T01:25:48.127Z,362.50
2022-11-14T01:26:48.108Z,369.60
2022-11-14T01:27:48.088Z,380.20
2022-11-14T01:28:48.087Z,371.00
2022-11-14T01:29:48.125Z,371.40
2022-11-14T01:30:48.064Z,380.70
2022-11-14T01:31:48.049Z,332.00
2022-11-14T01:32:49.518Z,317.60
2022-11-14T01:33:48.029Z,323.80
2022-11-14T01:34:48.052Z,366.70
2022-11-14T01:35:48.008Z,362.30
2022-11-14T01:36:47.994Z,318.70
2022-11-14T01:37:47.986Z,343.10
2022-11-14T01:38:47.981Z,320.40
2022-11-14T01:39:47.995Z,300.50
2022-11-14T01:40:47.943Z,313.10
2022-11-14T01:41:47.921Z,314.70
2022-11-14T01:42:47.930Z,290.90
2022-11-14T01:43:47.913Z,322.90
2022-11-14T01:44:47.905Z,289.10
2022-11-14T01:45:47.925Z,299.50
2022-11-14T01:46:47.885Z,303.40
2022-11-14T01:47:47.877Z,299.50
2022-11-14T01:48:47.868Z,300.40
2022-11-14T01:49:47.855Z,314.80
2022-11-14T01:50:47.862Z,332.30
2022-11-14T01:51:47.836Z,322.70
2022-11-14T01:52:47.806Z,133.40
2022-11-14T01:53:47.813Z,183.50
2022-11-14T01:54:47.812Z,144.20
2022-11-14T01:55:47.765Z,148.60
2022-11-14T01:56:47.784Z,200.60
2022-11-14T01:57:47.754Z,181.30
2022-11-14T01:58:47.739Z,184.90
2022-11-14T01:59:47.775Z,153.60
2022-11-14T02:00:47.725Z,246.00
2022-11-14T02:01:47.819Z,247.40
2022-11-14T02:02:47.701Z,282.40
2022-11-14T02:03:47.697Z,180.20
2022-11-14T02:04:47.684Z,188.80
2022-11-14T02:05:47.714Z,187.00
2022-11-14T02:06:47.699Z,219.20
2022-11-14T02:07:47.647Z,168.00
2022-11-14T02:08:47.631Z,181.50
2022-11-14T02:09:47.636Z,127.90
2022-11-14T02:10:47.634Z,120.00
2022-11-14T02:11:47.611Z,118.90
2022-11-14T02:12:47.589Z,124.00
2022-11-14T02:13:47.593Z,177.20
2022-11-14T02:14:47.567Z,178.10
2022-11-14T02:15:47.588Z,185.60
2022-11-14T02:17:01.043Z,176.80
2022-11-14T02:17:48.539Z,180.20
2022-11-14T02:18:47.523Z,114.60
2022-11-14T02:19:47.510Z,130.20
2022-11-14T02:20:47.523Z,159.20
2022-11-14T02:21:47.495Z,189.30
2022-11-14T02:22:47.481Z,176.40
2022-11-14T02:23:47.477Z,258.30
2022-11-14T02:24:47.457Z,201.80
2022-11-14T02:25:47.479Z,163.80
2022-11-14T02:26:47.421Z,125.50
2022-11-14T02:27:47.451Z,142.80
2022-11-14T02:28:47.410Z,136.90
2022-11-14T02:29:47.385Z,106.90
2022-11-14T02:30:47.400Z,105.90
2022-11-14T02:31:47.365Z,124.30
2022-11-14T02:33:48.345Z,109.30
2022-11-14T02:34:47.328Z,129.30
2022-11-14T02:35:47.349Z,167.30
2022-11-14T02:36:47.325Z,122.20
2022-11-14T02:37:47.287Z,110.80
2022-11-14T02:38:47.285Z,177.10
2022-11-14T02:39:47.292Z,161.80
2022-11-14T02:40:47.325Z,185.40
2022-11-14T02:41:47.270Z,180.00
2022-11-14T02:42:47.245Z,117.70
2022-11-14T02:43:47.281Z,131.20
2022-11-14T02:44:47.227Z,124.20
2022-11-14T02:45:47.247Z,182.60
2022-11-14T02:46:47.199Z,190.10
2022-11-14T02:47:47.196Z,135.10
2022-11-14T02:48:47.186Z,156.40
2022-11-14T02:49:47.166Z,122.60
2022-11-14T02:50:47.197Z,128.10
2022-11-14T02:51:47.158Z,125.90
2022-11-14T02:52:47.150Z,191.70
2022-11-14T02:53:47.145Z,206.20
2022-11-14T02:54:51.657Z,185.50
2022-11-14T02:55:48.122Z,175.90
2022-11-14T02:56:47.082Z,188.40
2022-11-14T02:57:47.096Z,192.10
2022-11-14T02:58:47.066Z,154.90
2022-11-14T02:59:47.075Z,147.40
2022-11-14T03:01:13.663Z,229.20
2022-11-14T03:01:48.062Z,267.80
2022-11-14T03:02:47.028Z,179.90
2022-11-14T03:03:47.024Z,182.30
2022-11-14T03:04:47.089Z,139.00
2022-11-14T03:05:47.047Z,141.40
2022-11-14T03:06:47.082Z,112.60
2022-11-14T03:07:46.970Z,115.10
2022-11-14T03:08:46.964Z,123.70
2022-11-14T03:09:46.955Z,154.80
2022-11-14T03:10:46.923Z,235.40
2022-11-14T03:11:46.942Z,141.50
2022-11-14T03:12:46.898Z,164.80
2022-11-14T03:13:46.890Z,116.50
2022-11-14T03:14:46.890Z,142.60
2022-11-14T03:15:46.890Z,125.50
2022-11-14T03:16:46.899Z,125.70
2022-11-14T03:17:46.843Z,130.30
2022-11-14T03:18:46.841Z,132.70
2022-11-14T03:19:46.827Z,194.50
2022-11-14T03:20:46.831Z,182.40
2022-11-14T03:21:46.850Z,145.70
2022-11-14T03:22:46.805Z,192.90
2022-11-14T03:23:46.802Z,206.20
2022-11-14T03:24:46.789Z,210.00
2022-11-14T03:25:46.761Z,187.20
2022-11-14T03:26:46.789Z,136.00
2022-11-14T03:27:46.758Z,136.30
2022-11-14T03:28:46.725Z,141.40
2022-11-14T03:29:46.762Z,156.20
2022-11-14T03:30:46.708Z,205.80
2022-11-14T03:31:46.732Z,167.10
2022-11-14T03:32:46.689Z,134.30
2022-11-14T03:33:46.675Z,187.30
2022-11-14T03:34:46.680Z,214.40
2022-11-14T03:35:46.655Z,193.40
2022-11-14T03:36:46.679Z,134.40
2022-11-14T03:37:46.624Z,124.40
2022-11-14T03:38:46.642Z,125.50
2022-11-14T03:39:46.610Z,163.00
2022-11-14T03:40:46.607Z,248.00
2022-11-14T03:41:46.616Z,220.90
2022-11-14T03:42:46.569Z,175.80
2022-11-14T03:43:46.580Z,278.60
2022-11-14T03:44:46.558Z,181.40
2022-11-14T03:45:46.550Z,138.70
2022-11-14T03:46:46.570Z,124.30
2022-11-14T03:47:46.530Z,199.90
2022-11-14T03:48:46.507Z,196.10
2022-11-14T03:49:46.491Z,191.60
2022-11-14T03:50:46.475Z,193.40
2022-11-14T03:51:46.495Z,205.30
2022-11-14T03:52:46.466Z,153.00
2022-11-14T03:53:46.473Z,139.80
2022-11-14T03:54:46.442Z,157.70
2022-11-14T03:55:46.433Z,132.80
2022-11-14T03:56:46.442Z,184.00
2022-11-14T03:57:46.418Z,198.40
2022-11-14T03:58:46.381Z,212.80
2022-11-14T03:59:46.390Z,270.80
2022-11-14T04:00:46.433Z,182.90
2022-11-14T04:01:46.404Z,330.90
2022-11-14T04:02:46.352Z,125.20
2022-11-14T04:03:46.352Z,167.00
2022-11-14T04:04:46.333Z,167.60
2022-11-14T04:05:46.313Z,201.80
2022-11-14T04:06:46.351Z,134.10
2022-11-14T04:07:46.330Z,128.50
2022-11-14T04:08:46.293Z,130.30
2022-11-14T04:09:46.273Z,182.50
2022-11-14T04:10:46.268Z,191.30
2022-11-14T04:11:46.246Z,168.80
2022-11-14T04:12:46.267Z,118.50
2022-11-14T04:13:46.233Z,132.90
2022-11-14T04:14:46.198Z,186.10
2022-11-14T04:15:46.243Z,173.20
2022-11-14T04:16:46.187Z,121.30
2022-11-14T04:17:46.205Z,130.50
2022-11-14T04:18:46.175Z,120.30
2022-11-14T04:19:46.168Z,143.00
2022-11-14T04:20:46.143Z,194.00
2022-11-14T04:21:46.154Z,168.60
2022-11-14T04:22:46.157Z,166.20
2022-11-14T04:23:46.115Z,206.20
2022-11-14T04:24:46.105Z,224.10
2022-11-14T04:25:46.093Z,197.60
2022-11-14T04:26:46.065Z,218.30
2022-11-14T04:27:46.094Z,264.90
2022-11-14T04:28:46.047Z,172.70
2022-11-14T04:29:46.047Z,146.50
2022-11-14T04:30:46.033Z,118.80
2022-11-14T04:31:46.035Z,110.90
2022-11-14T04:32:46.046Z,127.00
2022-11-14T04:33:46.017Z,175.60
2022-11-14T04:34:45.991Z,231.60
2022-11-14T04:35:45.991Z,142.60
2022-11-14T04:36:45.969Z,150.80
2022-11-14T04:37:45.998Z,200.90
2022-11-14T04:38:45.952Z,176.90
2022-11-14T04:39:45.937Z,178.10
2022-11-14T04:40:45.931Z,143.90
2022-11-14T04:41:45.916Z,142.70
2022-11-14T04:42:45.925Z,113.80
2022-11-14T04:43:50.652Z,110.20
2022-11-14T04:44:46.923Z,175.90
2022-11-14T04:45:45.883Z,146.00
2022-11-14T04:46:45.848Z,206.70
2022-11-14T04:47:45.876Z,116.70
2022-11-14T04:48:45.839Z,129.90
2022-11-14T04:49:45.835Z,113.40
2022-11-14T04:50:45.806Z,167.90
2022-11-14T04:51:45.813Z,198.20
2022-11-14T04:52:45.817Z,191.20
2022-11-14T04:53:45.783Z,119.50
2022-11-14T04:54:45.770Z,403.40
2022-11-14T04:55:45.757Z,556.80
2022-11-14T04:56:45.746Z,533.60
2022-11-14T04:57:45.779Z,509.80
2022-11-14T04:58:45.723Z,515.10
2022-11-14T04:59:45.721Z,475.70
2022-11-14T05:00:45.710Z,259.50
2022-11-14T05:01:45.792Z,475.60
2022-11-14T05:02:45.716Z,496.40
2022-11-14T05:03:45.671Z,485.80
2022-11-14T05:04:45.654Z,482.00
2022-11-14T05:05:45.625Z,461.40
2022-11-14T05:06:45.712Z,454.10
2022-11-14T05:07:45.661Z,443.20
2022-11-14T05:08:45.609Z,427.00
2022-11-14T05:09:45.613Z,443.70
2022-11-14T05:10:45.600Z,422.40
2022-11-14T05:11:45.581Z,416.30
2022-11-14T05:12:45.585Z,414.20
2022-11-14T05:13:45.552Z,419.50
2022-11-14T05:14:45.545Z,430.30
2022-11-14T05:15:45.520Z,396.90
2022-11-14T05:16:45.519Z,411.30
2022-11-14T05:17:45.525Z,427.20
2022-11-14T05:18:47.147Z,437.00
2022-11-14T05:19:45.476Z,403.40
2022-11-14T05:20:45.461Z,418.30
2022-11-14T05:21:45.472Z,368.40
2022-11-14T05:22:45.479Z,410.00
2022-11-14T05:23:45.441Z,413.00
2022-11-14T05:24:45.431Z,397.40
2022-11-14T05:25:45.421Z,395.70
2022-11-14T05:26:45.411Z,386.60
2022-11-14T05:27:45.447Z,381.10
2022-11-14T05:28:45.378Z,383.20
2022-11-14T05:29:45.369Z,375.70
2022-11-14T05:30:45.355Z,391.60
2022-11-14T05:31:45.355Z,180.70
2022-11-14T05:32:45.374Z,140.70
2022-11-14T05:33:45.337Z,112.80
2022-11-14T05:34:45.319Z,143.30
2022-11-14T05:35:45.319Z,120.10
2022-11-14T05:36:45.300Z,127.60
2022-11-14T05:37:45.308Z,119.00
2022-11-14T05:38:45.284Z,192.30
2022-11-14T05:39:45.283Z,351.20
2022-11-14T05:40:45.266Z,150.10
2022-11-14T05:41:45.217Z,118.10
2022-11-14T05:42:45.244Z,340.00
2022-11-14T05:43:45.216Z,452.90
2022-11-14T05:44:45.229Z,411.20
2022-11-14T05:45:45.207Z,391.80
2022-11-14T05:46:45.184Z,386.10
2022-11-14T05:47:45.223Z,380.30
2022-11-14T05:48:45.186Z,363.40
2022-11-14T05:49:45.176Z,363.80
2022-11-14T05:50:45.131Z,351.20
2022-11-14T05:51:45.145Z,385.00
2022-11-14T05:52:45.156Z,362.40
2022-11-14T05:53:45.113Z,398.40
2022-11-14T05:54:45.093Z,375.30
2022-11-14T05:55:45.118Z,374.70
2022-11-14T05:56:45.078Z,364.60
2022-11-14T05:57:45.123Z,396.00
2022-11-14T05:58:45.048Z,384.80
2022-11-14T05:59:45.026Z,433.10
2022-11-14T06:00:51.980Z,384.00
2022-11-14T06:01:46.090Z,404.90
2022-11-14T06:02:45.012Z,399.70
2022-11-14T06:03:44.998Z,401.90
2022-11-14T06:04:44.983Z,385.60
2022-11-14T06:05:44.978Z,389.80
2022-11-14T06:06:45.019Z,384.70
2022-11-14T06:07:44.964Z,371.70
2022-11-14T06:08:44.938Z,384.90
2022-11-14T06:09:44.929Z,382.90
2022-11-14T06:10:44.926Z,368.20
2022-11-14T06:11:44.893Z,366.00
2022-11-14T06:12:44.928Z,157.30
2022-11-14T06:13:44.872Z,181.50
2022-11-14T06:14:44.900Z,162.30
2022-11-14T06:15:44.859Z,149.40
2022-11-14T06:16:44.875Z,133.00
2022-11-14T06:17:44.817Z,141.30
2022-11-14T06:18:44.817Z,237.60
2022-11-14T06:19:44.802Z,308.70
2022-11-14T06:20:44.789Z,176.60
2022-11-14T06:21:44.826Z,154.10
2022-11-14T06:22:44.764Z,220.20
2022-11-14T06:23:44.776Z,216.00
2022-11-14T06:24:44.755Z,232.90
2022-11-14T06:25:44.750Z,219.00
2022-11-14T06:26:44.732Z,214.50
2022-11-14T06:27:44.751Z,268.00
2022-11-14T06:28:44.715Z,222.20
2022-11-14T06:29:44.693Z,179.50
2022-11-14T06:30:44.696Z,148.40
2022-11-14T06:31:44.665Z,124.70
2022-11-14T06:32:44.699Z,242.70
2022-11-14T06:33:44.671Z,217.00
2022-11-14T06:34:44.674Z,255.00
2022-11-14T06:35:44.648Z,154.20
2022-11-14T06:36:44.667Z,177.70
2022-11-14T06:37:44.630Z,178.30
2022-11-14T06:38:44.606Z,186.80
2022-11-14T06:39:44.568Z,232.50
2022-11-14T06:40:44.571Z,131.20
2022-11-14T06:41:44.552Z,135.00
2022-11-14T06:42:44.583Z,120.00
2022-11-14T06:43:44.545Z,132.90
2022-11-14T06:44:44.532Z,127.00
2022-11-14T06:45:44.508Z,116.50
2022-11-14T06:46:44.502Z,166.60
2022-11-14T06:47:44.517Z,207.10
2022-11-14T06:48:44.495Z,155.60
2022-11-14T06:49:44.476Z,188.30
2022-11-14T06:50:44.462Z,163.00
2022-11-14T06:51:44.430Z,220.90
2022-11-14T06:52:44.468Z,306.50
2022-11-14T06:53:44.418Z,273.00
2022-11-14T06:54:44.443Z,304.80
2022-11-14T06:55:44.387Z,210.90
2022-11-14T06:56:44.390Z,302.40
2022-11-14T06:57:44.385Z,196.50
2022-11-14T06:58:44.345Z,193.40
2022-11-14T06:59:44.354Z,145.20
2022-11-14T07:00:44.344Z,169.90
2022-11-14T07:01:44.334Z,150.90
2022-11-14T07:02:44.382Z,236.30
2022-11-14T07:03:44.326Z,269.30
2022-11-14T07:04:44.302Z,389.50
2022-11-14T07:05:44.282Z,156.70
2022-11-14T07:06:44.373Z,148.50
2022-11-14T07:07:44.375Z,232.80
2022-11-14T07:08:44.245Z,153.00
2022-11-14T07:09:44.237Z,173.10
2022-11-14T07:10:44.238Z,162.40
2022-11-14T07:11:44.221Z,236.70
2022-11-14T07:12:44.235Z,219.30
2022-11-14T07:13:44.184Z,189.80
2022-11-14T07:14:44.174Z,210.70
2022-11-14T07:15:44.176Z,339.60
2022-11-14T07:16:44.163Z,292.70
2022-11-14T07:17:44.179Z,285.60
2022-11-14T07:18:44.135Z,252.00
2022-11-14T07:19:44.128Z,293.60
2022-11-14T07:20:44.136Z,268.90
2022-11-14T07:21:44.098Z,214.50
2022-11-14T07:22:44.108Z,217.60
2022-11-14T07:23:44.088Z,204.70
2022-11-14T07:24:44.077Z,288.20
2022-11-14T07:25:44.054Z,159.40
2022-11-14T07:26:44.104Z,294.00
2022-11-14T07:27:44.030Z,157.00
2022-11-14T07:28:47.031Z,278.50
2022-11-14T07:29:45.018Z,232.80
2022-11-14T07:30:44.007Z,169.20
2022-11-14T07:31:44.062Z,257.70
2022-11-14T07:32:43.977Z,150.00
2022-11-14T07:33:43.961Z,396.30
2022-11-14T07:34:43.941Z,126.30
2022-11-14T07:35:43.931Z,200.30
2022-11-14T07:36:43.936Z,199.80
2022-11-14T07:37:43.941Z,189.70
2022-11-14T07:38:43.917Z,163.60
2022-11-14T07:39:43.899Z,178.20
2022-11-14T07:40:43.894Z,261.20
2022-11-14T07:41:43.871Z,242.80
2022-11-14T07:42:43.888Z,386.50
2022-11-14T07:43:43.846Z,696.40
2022-11-14T07:44:43.853Z,273.50
2022-11-14T07:45:43.821Z,413.90
2022-11-14T07:46:43.961Z,367.70
2022-11-14T07:47:43.833Z,905.60
2022-11-14T07:48:43.807Z,999.90
2022-11-14T07:49:43.791Z,817.80
2022-11-14T07:50:43.764Z,279.00
2022-11-14T07:51:43.775Z,254.20
2022-11-14T07:52:43.798Z,999.90
2022-11-14T07:53:43.744Z,139.80
2022-11-14T07:54:43.738Z,766.50
2022-11-14T07:55:43.702Z,999.90
2022-11-14T07:56:43.707Z,999.90
2022-11-14T07:57:48.789Z,418.00
2022-11-14T07:58:44.689Z,999.90
2022-11-14T07:59:43.665Z,999.90
2022-11-14T08:00:43.679Z,999.90
2022-11-14T08:01:43.656Z,999.90
2022-11-14T08:02:43.691Z,999.90
2022-11-14T08:03:46.007Z,999.90
2022-11-14T08:04:43.637Z,372.20
2022-11-14T08:05:43.619Z,240.80
2022-11-14T08:06:43.673Z,253.70
2022-11-14T08:07:43.597Z,151.30
2022-11-14T08:08:43.597Z,106.50
2022-11-14T08:09:43.542Z,999.90
2022-11-14T08:10:43.528Z,327.40
2022-11-14T08:11:43.516Z,224.10
2022-11-14T08:12:43.529Z,172.70
2022-11-14T08:13:43.553Z,232.60
2022-11-14T08:14:43.509Z,245.60
2022-11-14T08:15:43.497Z,999.90
2022-11-14T08:16:43.481Z,999.90
2022-11-14T08:17:43.475Z,999.90
2022-11-14T08:18:43.500Z,362.50
2022-11-14T08:19:43.454Z,256.50
2022-11-14T08:20:43.428Z,999.90
2022-11-14T08:21:43.405Z,999.90
2022-11-14T08:22:43.434Z,999.90
2022-11-14T08:23:43.436Z,292.50
2022-11-14T08:24:43.409Z,201.90
2022-11-14T08:25:43.386Z,182.70
2022-11-14T08:26:43.376Z,999.90
2022-11-14T08:27:43.346Z,243.50
2022-11-14T08:28:43.352Z,279.00
2022-11-14T08:29:43.340Z,999.90
2022-11-14T08:30:43.401Z,999.90
2022-11-14T08:31:43.300Z,999.90
2022-11-14T08:32:43.299Z,581.70
2022-11-14T08:33:43.336Z,999.90
2022-11-14T08:34:43.283Z,935.00
2022-11-14T08:35:43.267Z,999.90
2022-11-14T08:36:43.256Z,999.90
2022-11-14T08:37:43.242Z,999.90
2022-11-14T08:38:43.268Z,999.90
2022-11-14T08:39:43.222Z,999.90
2022-11-14T08:40:43.217Z,999.90
2022-11-14T08:41:43.208Z,999.90
2022-11-14T08:42:43.212Z,999.90
2022-11-14T08:43:43.213Z,999.90
2022-11-14T08:44:45.600Z,999.90
2022-11-14T08:45:44.146Z,999.90
2022-11-14T08:46:43.142Z,999.90
2022-11-14T08:47:43.109Z,999.90
2022-11-14T08:48:43.144Z,999.90
2022-11-14T08:49:43.093Z,999.90
2022-11-14T08:50:43.089Z,999.90
2022-11-14T08:51:43.087Z,999.90
2022-11-14T08:52:43.105Z,999.90
2022-11-14T08:53:43.096Z,999.90
2022-11-14T08:54:43.060Z,999.90
2022-11-14T08:55:43.023Z,999.90
2022-11-14T08:56:43.035Z,999.90
2022-11-14T08:57:48.079Z,999.90
2022-11-14T08:58:44.040Z,999.90
2022-11-14T08:59:42.997Z,999.90
2022-11-14T09:00:42.982Z,999.90
2022-11-14T09:01:42.941Z,999.90
2022-11-14T09:02:42.966Z,999.90
2022-11-14T09:03:43.087Z,999.90
2022-11-14T09:04:43.015Z,999.90
2022-11-14T09:05:42.918Z,999.90
2022-11-14T09:06:42.989Z,999.90
2022-11-14T09:07:42.912Z,999.90
2022-11-14T09:08:42.918Z,999.90
2022-11-14T09:09:42.880Z,999.90
2022-11-14T09:10:42.885Z,999.90
2022-11-14T09:11:42.854Z,999.90
2022-11-14T09:12:42.840Z,999.90
2022-11-14T09:13:42.845Z,999.90
2022-11-14T09:14:42.828Z,999.90
2022-11-14T09:15:42.810Z,999.90
2022-11-14T09:16:42.794Z,999.90
2022-11-14T09:17:42.772Z,999.90
2022-11-14T09:18:42.794Z,999.90
2022-11-14T09:19:42.761Z,999.90
2022-11-14T09:20:42.764Z,999.90
2022-11-14T09:21:42.732Z,999.90
2022-11-14T09:22:42.719Z,999.90
2022-11-14T09:23:42.731Z,999.90
2022-11-14T09:24:42.689Z,999.90
2022-11-14T09:25:42.665Z,999.90
2022-11-14T09:26:42.668Z,999.90
2022-11-14T09:27:42.667Z,999.90
2022-11-14T09:28:42.697Z,999.90
2022-11-14T09:29:42.655Z,999.90
2022-11-14T09:30:42.641Z,999.90
2022-11-14T09:31:42.603Z,999.90
2022-11-14T09:32:42.621Z,999.90
2022-11-14T09:33:42.631Z,999.90
2022-11-14T09:34:42.596Z,999.90
2022-11-14T09:35:42.569Z,916.60
2022-11-14T09:36:42.559Z,999.90
2022-11-14T09:37:42.651Z,999.90
2022-11-14T09:38:42.569Z,999.90
2022-11-14T09:39:42.543Z,999.90
2022-11-14T09:40:42.540Z,999.90
2022-11-14T09:41:42.515Z,999.90
2022-11-14T09:42:42.498Z,999.90
2022-11-14T09:43:42.500Z,999.90
2022-11-14T09:44:42.469Z,999.90
2022-11-14T09:45:42.444Z,563.10
2022-11-14T09:46:42.459Z,999.90
2022-11-14T09:47:42.435Z,669.90
2022-11-14T09:48:42.465Z,342.30
2022-11-14T09:49:42.396Z,511.10
2022-11-14T09:50:42.420Z,43.90
2022-11-14T09:51:42.390Z,26.70
2022-11-14T09:52:42.374Z,26.60
2022-11-14T09:53:42.403Z,23.10
2022-11-14T09:54:42.357Z,22.40
2022-11-14T09:55:42.344Z,24.40
2022-11-14T09:56:42.340Z,27.80
2022-11-14T09:57:42.340Z,38.40
2022-11-14T09:58:42.378Z,29.50
2022-11-14T09:59:42.312Z,23.90
2022-11-14T10:00:42.298Z,21.30
2022-11-14T10:01:42.300Z,20.80
2022-11-14T10:02:42.270Z,24.50
2022-11-14T10:03:42.277Z,19.90
2022-11-14T10:04:42.269Z,19.60
2022-11-14T10:05:42.226Z,19.50
2022-11-14T10:06:42.235Z,18.30
2022-11-14T10:07:42.273Z,18.80
2022-11-14T10:08:42.242Z,18.00
2022-11-14T10:09:42.200Z,18.50
2022-11-14T10:10:42.167Z,19.40
2022-11-14T10:11:42.167Z,18.60
2022-11-14T10:12:42.173Z,19.30
2022-11-14T10:13:42.170Z,18.50
2022-11-14T10:14:42.117Z,18.30
2022-11-14T10:15:42.145Z,18.50
2022-11-14T10:16:42.121Z,17.60
2022-11-14T10:17:42.139Z,19.90
2022-11-14T10:18:42.104Z,26.60
2022-11-14T10:19:42.960Z,30.40
2022-11-14T10:20:42.072Z,32.70
2022-11-14T10:21:42.050Z,33.20
2022-11-14T10:22:42.065Z,31.40
2022-11-14T10:23:42.047Z,30.10
2022-11-14T10:24:42.014Z,31.50
2022-11-14T10:25:44.252Z,33.60
2022-11-14T10:26:42.016Z,38.30
2022-11-14T10:27:42.037Z,39.40
2022-11-14T10:28:41.986Z,41.10
2022-11-14T10:29:41.979Z,37.90
2022-11-14T10:30:41.960Z,33.90
2022-11-14T10:31:41.934Z,23.70
2022-11-14T10:32:41.955Z,25.70
2022-11-14T10:33:41.928Z,22.40
2022-11-14T10:34:41.911Z,26.40
2022-11-14T10:35:41.902Z,25.50
2022-11-14T10:36:41.889Z,25.80
2022-11-14T10:37:41.887Z,28.50
2022-11-14T10:38:41.846Z,26.30
2022-11-14T10:39:41.855Z,24.60
2022-11-14T10:40:41.827Z,20.90
2022-11-14T10:41:56.767Z,20.10
2022-11-14T10:42:42.865Z,18.00
2022-11-14T10:43:41.817Z,16.40
2022-11-14T10:44:41.783Z,16.20
2022-11-14T10:45:41.794Z,15.90
2022-11-14T10:46:41.765Z,13.40
2022-11-14T10:47:41.801Z,12.00
2022-11-14T10:48:41.747Z,12.40
2022-11-14T10:49:41.752Z,11.30
2022-11-14T10:50:41.713Z,12.10
2022-11-14T10:51:41.705Z,11.30
2022-11-14T10:52:41.686Z,11.40
2022-11-14T10:53:41.724Z,11.60
2022-11-14T10:54:41.661Z,12.50
2022-11-14T10:56:03.270Z,13.50
2022-11-14T10:56:42.681Z,13.70
2022-11-14T10:57:41.653Z,15.30
2022-11-14T10:58:48.365Z,14.80
2022-11-14T10:59:42.608Z,14.60
2022-11-14T11:00:41.686Z,12.80
2022-11-14T11:01:41.605Z,11.20
2022-11-14T11:02:41.611Z,10.80
2022-11-14T11:03:41.634Z,9.60
2022-11-14T11:04:41.573Z,9.30
2022-11-14T11:05:41.553Z,9.20
2022-11-14T11:06:41.540Z,9.30
2022-11-14T11:07:41.557Z,9.40
2022-11-14T11:08:43.729Z,9.80
2022-11-14T11:09:45.486Z,10.00
2022-11-14T11:10:41.495Z,10.00
2022-11-14T11:11:41.529Z,9.60
2022-11-14T11:12:41.580Z,9.10
2022-11-14T11:13:41.458Z,8.70
2022-11-14T11:14:41.454Z,9.30
2022-11-14T11:15:41.435Z,8.80
2022-11-14T11:16:41.423Z,8.70
2022-11-14T11:17:43.184Z,9.40
2022-11-14T11:18:41.431Z,9.30
2022-11-14T11:19:41.423Z,9.40
2022-11-14T11:20:41.369Z,8.80
2022-11-14T11:21:41.440Z,9.10
2022-11-14T11:22:41.357Z,8.80
2022-11-14T11:23:41.371Z,8.40
2022-11-14T11:24:41.327Z,8.50
2022-11-14T11:25:41.339Z,7.90
2022-11-14T11:26:41.312Z,7.50
2022-11-14T11:27:41.288Z,8.40
2022-11-14T11:28:41.303Z,8.00
2022-11-14T11:29:41.278Z,7.60
2022-11-14T11:30:41.274Z,7.50
2022-11-14T11:31:41.254Z,8.00
2022-11-14T11:32:41.254Z,7.80
2022-11-14T11:33:41.274Z,7.70
2022-11-14T11:34:41.219Z,8.20
2022-11-14T11:35:41.248Z,7.80
2022-11-14T11:36:41.209Z,8.00
2022-11-14T11:37:41.194Z,8.40
2022-11-14T11:38:41.190Z,7.50
2022-11-14T11:39:41.177Z,8.30
2022-11-14T11:40:41.151Z,8.30
2022-11-14T11:43:31.564Z,8.00
2022-11-14T11:43:42.166Z,8.60
2022-11-14T11:44:41.103Z,8.30
2022-11-14T11:45:41.091Z,8.30
2022-11-14T11:46:41.113Z,8.20
2022-11-14T11:47:41.084Z,8.20
2022-11-14T11:48:41.100Z,8.60
2022-11-14T11:49:41.056Z,8.70
2022-11-14T11:50:41.047Z,8.90
2022-11-14T11:51:41.037Z,8.20
2022-11-14T11:52:41.018Z,8.80
2022-11-14T11:53:41.049Z,8.30
2022-11-14T11:54:40.979Z,8.90
2022-11-14T11:55:41.002Z,8.80
2022-11-14T11:56:40.965Z,8.70
2022-11-14T11:57:40.945Z,8.80
2022-11-14T11:58:40.976Z,8.70
2022-11-14T11:59:40.943Z,8.60
2022-11-14T12:00:40.936Z,8.90
2022-11-14T12:01:40.911Z,8.20
2022-11-14T12:02:46.335Z,8.20
2022-11-14T12:03:41.997Z,9.10
2022-11-14T12:04:40.861Z,8.40
2022-11-14T12:05:40.855Z,8.60
2022-11-14T12:06:40.840Z,8.60
2022-11-14T12:07:40.861Z,9.10
2022-11-14T12:08:40.874Z,8.50
2022-11-14T12:10:09.185Z,8.50
2022-11-14T12:10:41.809Z,9.60
2022-11-14T12:11:40.812Z,8.50
2022-11-14T12:12:40.781Z,8.70
2022-11-14T12:13:40.815Z,8.70
2022-11-14T12:14:40.769Z,8.50
2022-11-14T12:15:40.756Z,8.30
2022-11-14T12:16:40.755Z,8.70
2022-11-14T12:17:40.729Z,8.80
2022-11-14T12:18:40.740Z,8.20
2022-11-14T12:19:40.703Z,8.10
2022-11-14T12:20:40.704Z,8.10
2022-11-14T12:21:40.691Z,7.90
2022-11-14T12:22:40.679Z,8.10
2022-11-14T12:23:40.693Z,8.00
2022-11-14T12:24:40.681Z,8.30
2022-11-14T12:25:40.628Z,8.20
2022-11-14T12:26:40.639Z,8.10
2022-11-14T12:27:40.713Z,8.10
2022-11-14T12:28:40.654Z,8.00
2022-11-14T12:29:40.596Z,7.70
2022-11-14T12:30:40.592Z,7.90
2022-11-14T12:31:40.576Z,7.60
2022-11-14T12:32:40.579Z,7.80
2022-11-14T12:33:40.596Z,7.80
2022-11-14T12:34:40.545Z,7.80
2022-11-14T12:35:40.536Z,7.60
2022-11-14T12:36:40.508Z,7.40
2022-11-14T12:37:40.571Z,7.40
2022-11-14T12:38:40.535Z,7.90